createdAt,value
2022-12-25T00:02:16.819Z,0.79
2022-12-25T00:04:47.083Z,0.81
2022-12-25T00:07:17.189Z,0.75
2022-12-25T00:09:47.406Z,0.81
2022-12-25T00:12:18.371Z,0.79
2022-12-25T00:14:48.665Z,0.81
2022-12-25T00:17:18.847Z,0.76
2022-12-25T00:19:48.995Z,0.76
2022-12-25T00:22:19.379Z,0.78
2022-12-25T00:24:50.064Z,0.76
2022-12-25T00:27:20.256Z,0.78
2022-12-25T00:29:50.369Z,0.79
2022-12-25T00:32:20.620Z,0.79
2022-12-25T00:34:50.794Z,0.79
2022-12-25T00:37:20.920Z,0.80
2022-12-25T00:39:50.985Z,0.81
2022-12-25T00:42:21.277Z,0.79
2022-12-25T00:44:51.554Z,0.73
2022-12-25T00:47:21.797Z,0.82
2022-12-25T00:49:52.117Z,0.79
2022-12-25T00:52:22.289Z,0.81
2022-12-25T00:54:52.517Z,0.83
2022-12-25T00:57:22.650Z,0.84
2022-12-25T00:59:52.801Z,0.82
2022-12-25T01:02:26.259Z,0.84
2022-12-25T01:04:57.544Z,0.85
2022-12-25T01:07:28.124Z,0.83
2022-12-25T01:10:17.045Z,0.68
2022-12-25T01:12:47.179Z,0.83
2022-12-25T01:15:18.048Z,0.85
2022-12-25T01:17:48.262Z,0.79
2022-12-25T01:20:19.451Z,0.86
2022-12-25T01:22:49.591Z,0.84
2022-12-25T01:25:20.161Z,0.81
2022-12-25T01:27:50.328Z,0.85
2022-12-25T01:30:20.409Z,0.85
2022-12-25T01:32:50.626Z,0.86
2022-12-25T01:35:20.880Z,0.87
2022-12-25T01:37:52.142Z,0.90
2022-12-25T01:40:22.450Z,0.87
2022-12-25T01:42:52.579Z,0.90
2022-12-25T01:45:40.702Z,0.91
2022-12-25T01:48:19.673Z,0.89
2022-12-25T01:50:59.071Z,0.87
2022-12-25T01:53:29.541Z,0.86
2022-12-25T01:56:04.643Z,0.84
2022-12-25T01:58:35.795Z,0.82
2022-12-25T02:01:05.973Z,0.82
2022-12-25T02:03:36.282Z,0.82
2022-12-25T02:06:07.695Z,0.81
2022-12-25T02:08:38.146Z,0.77
2022-12-25T02:11:29.353Z,0.79
2022-12-25T02:13:59.484Z,0.76
2022-12-25T02:16:35.693Z,0.75
2022-12-25T02:19:57.759Z,0.78
2022-12-25T02:23:05.381Z,0.78
2022-12-25T02:25:35.736Z,0.79
2022-12-25T02:28:45.963Z,0.77
2022-12-25T02:31:38.186Z,0.78
2022-12-25T02:34:32.158Z,0.77
2022-12-25T02:37:10.553Z,0.76
2022-12-25T02:39:59.810Z,0.76
2022-12-25T02:43:15.184Z,0.79
2022-12-25T02:46:10.841Z,0.79
2022-12-25T02:49:06.476Z,0.81
2022-12-25T02:51:58.614Z,0.81
2022-12-25T02:54:55.417Z,0.81
2022-12-25T02:57:50.773Z,0.82
2022-12-25T03:00:56.648Z,0.78
2022-12-25T03:03:50.097Z,0.78
2022-12-25T03:06:40.740Z,0.77
2022-12-25T03:09:42.023Z,0.77
2022-12-25T03:12:43.528Z,0.77
2022-12-25T03:15:34.985Z,0.71
2022-12-25T03:18:10.170Z,0.64
2022-12-25T03:20:58.849Z,0.71
2022-12-25T03:23:52.535Z,0.71
2022-12-25T03:26:41.501Z,0.68
2022-12-25T03:29:32.201Z,0.65
2022-12-25T03:32:16.942Z,0.65
2022-12-25T03:35:24.445Z,0.68
2022-12-25T03:38:51.791Z,0.70
2022-12-25T03:42:07.605Z,0.70
2022-12-25T03:45:02.260Z,0.72
2022-12-25T03:48:01.069Z,0.73
2022-12-25T03:50:57.905Z,0.71
2022-12-25T03:54:09.272Z,0.72
2022-12-25T03:56:58.635Z,0.71
2022-12-25T03:59:47.741Z,0.72
2022-12-25T04:02:36.585Z,0.71
2022-12-25T04:05:26.057Z,0.71
2022-12-25T04:08:14.478Z,0.72
2022-12-25T04:11:03.200Z,0.71
2022-12-25T04:14:11.720Z,0.73
2022-12-25T04:17:00.329Z,0.73
2022-12-25T04:19:49.162Z,0.70
2022-12-25T04:22:38.156Z,0.71
2022-12-25T04:25:46.743Z,0.70
2022-12-25T04:28:35.118Z,0.74
2022-12-25T04:31:23.893Z,0.77
2022-12-25T04:34:12.794Z,0.78
2022-12-25T04:36:42.944Z,0.78
2022-12-25T04:39:13.257Z,0.78
2022-12-25T04:41:43.406Z,0.80
2022-12-25T04:44:13.719Z,0.80
2022-12-25T04:46:44.007Z,0.80
2022-12-25T04:49:14.201Z,0.75
2022-12-25T04:51:44.391Z,0.83
2022-12-25T04:54:14.656Z,0.84
2022-12-25T04:56:45.991Z,0.88
2022-12-25T04:59:16.380Z,0.88
2022-12-25T05:01:46.665Z,0.88
2022-12-25T05:04:16.780Z,0.84
2022-12-25T05:06:46.997Z,0.84
2022-12-25T05:09:17.124Z,0.81
2022-12-25T05:11:47.281Z,0.81
2022-12-25T05:14:17.430Z,0.80
2022-12-25T05:16:47.757Z,0.83
2022-12-25T05:19:17.927Z,0.83
2022-12-25T05:21:48.006Z,0.84
2022-12-25T05:24:18.152Z,0.84
2022-12-25T05:26:48.256Z,0.86
2022-12-25T05:29:18.406Z,0.89
2022-12-25T05:31:48.636Z,0.87
2022-12-25T05:34:18.889Z,0.88
2022-12-25T05:36:49.047Z,0.88
2022-12-25T05:39:19.415Z,0.89
2022-12-25T05:41:49.497Z,0.90
2022-12-25T05:44:19.647Z,0.87
2022-12-25T05:46:49.776Z,0.88
2022-12-25T05:49:20.150Z,0.84
2022-12-25T05:51:50.369Z,0.81
2022-12-25T05:54:20.980Z,0.84
2022-12-25T05:56:51.119Z,0.86
2022-12-25T05:59:21.259Z,0.85
2022-12-25T06:01:51.482Z,0.86
2022-12-25T06:04:21.765Z,0.88
2022-12-25T06:06:51.962Z,0.81
2022-12-25T06:09:22.067Z,0.76
2022-12-25T06:11:52.240Z,0.71
2022-12-25T06:14:22.465Z,0.72
2022-12-25T06:16:53.510Z,0.75
2022-12-25T06:19:24.124Z,0.77
2022-12-25T06:21:55.034Z,0.77
2022-12-25T06:24:25.293Z,0.77
2022-12-25T06:26:55.488Z,0.77
2022-12-25T06:29:25.745Z,0.73
2022-12-25T06:31:57.536Z,0.72
2022-12-25T06:34:27.999Z,0.69
2022-12-25T06:36:58.213Z,0.71
2022-12-25T06:39:28.418Z,0.61
2022-12-25T06:41:58.555Z,0.67
2022-12-25T06:44:28.736Z,0.70
2022-12-25T06:46:58.842Z,0.71
2022-12-25T06:49:29.058Z,0.72
2022-12-25T06:51:59.169Z,0.78
2022-12-25T06:54:29.401Z,0.75
2022-12-25T06:56:59.537Z,0.71
2022-12-25T06:59:30.100Z,0.69
2022-12-25T07:02:00.332Z,0.69
2022-12-25T07:04:42.082Z,0.71
2022-12-25T07:07:12.545Z,0.70
2022-12-25T07:09:42.863Z,0.68
2022-12-25T07:12:21.771Z,0.73
2022-12-25T07:14:54.797Z,0.75
2022-12-25T07:17:25.151Z,0.73
2022-12-25T07:19:56.772Z,0.73
2022-12-25T07:22:29.257Z,0.76
2022-12-25T07:24:59.513Z,0.77
2022-12-25T07:27:29.763Z,0.78
2022-12-25T07:29:59.894Z,0.78
2022-12-25T07:32:33.346Z,0.75
2022-12-25T07:35:03.639Z,0.72
2022-12-25T07:37:33.754Z,0.70
2022-12-25T07:40:04.181Z,0.73
2022-12-25T07:42:34.413Z,0.76
2022-12-25T07:45:05.304Z,0.77
2022-12-25T07:47:35.449Z,0.77
2022-12-25T07:50:06.416Z,0.76
2022-12-25T07:52:43.041Z,0.73
2022-12-25T07:55:13.701Z,0.82
2022-12-25T07:57:43.811Z,0.81
2022-12-25T08:00:14.557Z,0.83
2022-12-25T08:02:45.107Z,0.83
2022-12-25T08:05:15.562Z,0.90
2022-12-25T08:07:45.711Z,0.93
2022-12-25T08:10:15.858Z,0.95
2022-12-25T08:12:46.026Z,0.96
2022-12-25T08:15:16.272Z,0.95
2022-12-25T08:17:46.434Z,0.98
2022-12-25T08:20:16.662Z,0.98
2022-12-25T08:22:46.880Z,0.99
2022-12-25T08:25:17.228Z,1.01
2022-12-25T08:27:47.403Z,1.02
2022-12-25T08:30:17.928Z,1.02
2022-12-25T08:32:48.329Z,1.07
2022-12-25T08:35:18.638Z,1.10
2022-12-25T08:37:48.816Z,1.09
2022-12-25T08:40:20.259Z,1.13
2022-12-25T08:42:50.454Z,1.15
2022-12-25T08:45:20.726Z,1.16
2022-12-25T08:47:55.656Z,1.21
2022-12-25T08:50:26.303Z,1.20
2022-12-25T08:52:56.479Z,1.26
2022-12-25T08:55:26.864Z,1.28
2022-12-25T08:57:57.046Z,1.30
2022-12-25T09:00:27.340Z,1.32
2022-12-25T09:02:57.568Z,1.36
2022-12-25T09:05:27.914Z,1.38
2022-12-25T09:07:58.193Z,1.41
2022-12-25T09:10:28.350Z,1.45
2022-12-25T09:12:58.466Z,1.46
2022-12-25T09:15:28.645Z,1.48
2022-12-25T09:17:58.764Z,1.53
2022-12-25T09:20:28.952Z,1.58
2022-12-25T09:22:59.289Z,1.59
2022-12-25T09:25:29.487Z,1.62
2022-12-25T09:27:59.634Z,1.61
2022-12-25T09:30:29.818Z,1.62
2022-12-25T09:33:00.096Z,1.64
2022-12-25T09:35:30.328Z,1.67
2022-12-25T09:38:00.506Z,1.67
2022-12-25T09:40:32.620Z,1.71
2022-12-25T09:43:04.157Z,1.72
2022-12-25T09:45:38.878Z,1.75
2022-12-25T09:48:15.040Z,1.76
2022-12-25T09:51:03.248Z,1.83
2022-12-25T09:53:44.504Z,1.90
2022-12-25T09:56:19.351Z,1.91
2022-12-25T09:58:49.442Z,1.96
2022-12-25T10:01:53.247Z,1.89
2022-12-25T10:04:41.752Z,1.97
2022-12-25T10:07:36.212Z,1.95
2022-12-25T10:10:32.822Z,1.93
2022-12-25T10:13:14.560Z,1.95
2022-12-25T10:15:47.450Z,1.89
2022-12-25T10:18:44.823Z,1.87
2022-12-25T10:21:18.510Z,1.85
2022-12-25T10:24:04.848Z,1.82
2022-12-25T10:26:35.695Z,1.81
2022-12-25T10:29:17.365Z,1.83
2022-12-25T10:31:50.034Z,1.86
2022-12-25T10:34:20.613Z,1.85
2022-12-25T10:36:51.027Z,1.87
2022-12-25T10:39:24.446Z,1.92
2022-12-25T10:42:19.548Z,1.93
2022-12-25T10:44:57.987Z,1.93
2022-12-25T10:47:39.682Z,1.94
2022-12-25T10:50:17.534Z,1.93
2022-12-25T10:53:01.520Z,1.88
2022-12-25T10:55:33.377Z,1.86
2022-12-25T10:58:03.560Z,1.70
2022-12-25T11:00:34.064Z,1.76
2022-12-25T11:03:04.619Z,1.70
2022-12-25T11:05:36.349Z,1.69
2022-12-25T11:08:21.369Z,1.68
2022-12-25T11:10:57.764Z,1.67
2022-12-25T11:13:30.448Z,1.65
2022-12-25T11:16:06.106Z,1.65
2022-12-25T11:18:50.378Z,1.67
2022-12-25T11:21:24.870Z,1.66
2022-12-25T11:24:07.119Z,1.63
2022-12-25T11:26:48.489Z,1.64
2022-12-25T11:29:51.411Z,1.66
2022-12-25T11:32:29.671Z,1.65
2022-12-25T11:35:02.727Z,1.73
2022-12-25T11:37:46.377Z,1.74
2022-12-25T11:40:24.402Z,1.78
2022-12-25T11:43:18.645Z,1.80
2022-12-25T11:45:54.126Z,1.77
2022-12-25T11:48:34.425Z,1.81
2022-12-25T11:51:06.442Z,1.79
2022-12-25T11:53:41.352Z,1.81
2022-12-25T11:56:14.457Z,1.76
2022-12-25T11:58:49.523Z,1.71
2022-12-25T12:01:25.576Z,1.74
2022-12-25T12:03:56.515Z,1.75
2022-12-25T12:06:26.784Z,1.76
2022-12-25T12:09:09.418Z,1.70
2022-12-25T12:11:48.431Z,1.71
2022-12-25T12:14:45.957Z,1.72
2022-12-25T12:17:18.528Z,1.66
2022-12-25T12:19:48.855Z,1.65
2022-12-25T12:22:26.917Z,1.66
2022-12-25T12:25:04.805Z,1.64
2022-12-25T12:27:38.096Z,1.65
2022-12-25T12:30:24.507Z,1.65
2022-12-25T12:33:01.514Z,1.65
2022-12-25T12:35:33.569Z,1.65
2022-12-25T12:38:17.450Z,1.63
2022-12-25T12:40:55.412Z,1.64
2022-12-25T12:43:43.359Z,1.68
2022-12-25T12:46:48.741Z,1.69
2022-12-25T12:49:35.123Z,1.70
2022-12-25T12:52:31.064Z,1.70
2022-12-25T12:55:13.271Z,1.70
2022-12-25T12:57:45.253Z,1.67
2022-12-25T13:00:19.881Z,1.69
2022-12-25T13:03:14.852Z,1.71
2022-12-25T13:05:55.750Z,1.72
2022-12-25T13:08:39.767Z,1.72
2022-12-25T13:11:21.613Z,1.68
2022-12-25T13:13:54.405Z,1.67
2022-12-25T13:16:27.553Z,1.70
2022-12-25T13:18:58.208Z,1.67
2022-12-25T13:21:29.875Z,1.69
2022-12-25T13:24:02.739Z,1.66
2022-12-25T13:26:33.286Z,1.67
2022-12-25T13:29:11.354Z,1.68
2022-12-25T13:31:42.346Z,1.66
2022-12-25T13:34:21.392Z,1.63
2022-12-25T13:36:51.660Z,1.54
2022-12-25T13:39:25.200Z,1.58
2022-12-25T13:42:09.768Z,1.54
2022-12-25T13:44:40.158Z,1.54
2022-12-25T13:47:31.378Z,1.54
2022-12-25T13:50:17.257Z,1.51
2022-12-25T13:52:47.586Z,1.50
2022-12-25T13:55:24.702Z,1.54
2022-12-25T13:57:56.276Z,1.58
2022-12-25T14:00:39.572Z,1.56
2022-12-25T14:03:19.726Z,1.56
2022-12-25T14:06:00.855Z,1.53
2022-12-25T14:08:34.001Z,1.54
2022-12-25T14:11:06.395Z,1.56
2022-12-25T14:13:41.045Z,1.56
2022-12-25T14:16:12.726Z,1.53
2022-12-25T14:18:56.124Z,1.55
2022-12-25T14:21:35.196Z,1.48
2022-12-25T14:24:13.722Z,1.55
2022-12-25T14:26:44.540Z,1.56
2022-12-25T14:29:23.659Z,1.55
2022-12-25T14:31:59.012Z,1.55
2022-12-25T14:34:30.689Z,1.58
2022-12-25T14:37:03.618Z,1.48
2022-12-25T14:39:38.583Z,1.57
2022-12-25T14:42:20.139Z,1.56
2022-12-25T14:45:03.512Z,1.58
2022-12-25T14:47:50.091Z,1.57
2022-12-25T14:50:37.480Z,1.56
2022-12-25T14:53:19.885Z,1.55
2022-12-25T14:55:53.437Z,1.54
2022-12-25T14:58:28.044Z,1.58
2022-12-25T15:01:04.689Z,1.57
2022-12-25T15:03:38.070Z,1.60
2022-12-25T15:06:20.073Z,1.60
2022-12-25T15:08:59.031Z,1.60
2022-12-25T15:11:30.144Z,1.59
2022-12-25T15:14:00.830Z,1.56
2022-12-25T15:16:42.467Z,1.57
2022-12-25T15:19:23.492Z,1.56
2022-12-25T15:21:57.207Z,1.53
2022-12-25T15:24:27.324Z,1.48
2022-12-25T15:27:00.465Z,1.57
2022-12-25T15:30:09.260Z,1.55
2022-12-25T15:32:24.700Z,1.57
2022-12-25T15:34:54.824Z,1.58
2022-12-25T15:37:24.975Z,1.58
2022-12-25T15:39:57.425Z,1.58
2022-12-25T15:42:27.742Z,1.57
2022-12-25T15:44:58.137Z,1.56
2022-12-25T15:47:28.291Z,1.58
2022-12-25T15:49:58.515Z,1.51
2022-12-25T15:52:28.604Z,1.60
2022-12-25T15:54:58.743Z,1.60
2022-12-25T15:57:28.928Z,1.62
2022-12-25T15:59:59.686Z,1.62
2022-12-25T16:02:30.417Z,1.62
2022-12-25T16:05:05.440Z,1.65
2022-12-25T16:07:39.415Z,1.65
2022-12-25T16:10:18.767Z,1.66
2022-12-25T16:12:48.951Z,1.66
2022-12-25T16:15:19.181Z,1.60
2022-12-25T16:17:49.271Z,1.66
2022-12-25T16:20:19.485Z,1.66
2022-12-25T16:22:49.834Z,1.67
2022-12-25T16:25:20.475Z,1.67
2022-12-25T16:27:50.686Z,1.64
2022-12-25T16:30:21.071Z,1.66
2022-12-25T16:32:51.933Z,1.71
2022-12-25T16:35:22.127Z,1.70
2022-12-25T16:37:52.318Z,1.42
2022-12-25T16:40:22.654Z,1.71
2022-12-25T16:42:53.000Z,1.72
2022-12-25T16:45:23.402Z,1.73
2022-12-25T16:47:53.589Z,1.73
2022-12-25T16:50:23.961Z,1.72
2022-12-25T16:52:54.227Z,1.75
2022-12-25T16:55:29.654Z,1.76
2022-12-25T16:58:01.021Z,1.77
2022-12-25T17:00:31.222Z,1.78
2022-12-25T17:03:01.895Z,1.81
2022-12-25T17:05:33.614Z,1.82
2022-12-25T17:08:03.961Z,1.82
2022-12-25T17:10:34.153Z,1.84
2022-12-25T17:13:04.276Z,1.82
2022-12-25T17:15:34.445Z,1.78
2022-12-25T17:18:04.562Z,1.87
2022-12-25T17:20:36.233Z,1.89
2022-12-25T17:23:06.344Z,1.84
2022-12-25T17:25:36.973Z,1.95
2022-12-25T17:28:07.076Z,1.94
2022-12-25T17:30:37.216Z,1.94
2022-12-25T17:33:07.310Z,1.92
2022-12-25T17:35:37.715Z,1.96
2022-12-25T17:38:07.869Z,1.92
2022-12-25T17:40:37.999Z,1.92
2022-12-25T17:43:08.097Z,1.94
2022-12-25T17:45:38.214Z,1.96
2022-12-25T17:48:08.351Z,1.98
2022-12-25T17:50:41.456Z,1.96
2022-12-25T17:53:12.065Z,1.99
2022-12-25T17:55:42.418Z,1.93
2022-12-25T17:58:12.607Z,1.98
2022-12-25T18:00:42.724Z,2.01
2022-12-25T18:03:12.998Z,2.02
2022-12-25T18:05:43.391Z,2.03
2022-12-25T18:08:14.163Z,2.03
2022-12-25T18:10:44.726Z,2.04
2022-12-25T18:13:14.866Z,1.95
2022-12-25T18:15:44.988Z,2.04
2022-12-25T18:18:15.507Z,2.01
2022-12-25T18:20:45.693Z,2.02
2022-12-25T18:23:15.897Z,2.03
2022-12-25T18:25:46.090Z,2.04
2022-12-25T18:28:17.004Z,2.05
2022-12-25T18:30:47.792Z,2.07
2022-12-25T18:33:18.015Z,2.06
2022-12-25T18:35:48.236Z,2.06
2022-12-25T18:38:18.446Z,1.97
2022-12-25T18:40:48.780Z,2.05
2022-12-25T18:43:19.187Z,2.05
2022-12-25T18:46:00.499Z,2.08
2022-12-25T18:48:32.166Z,2.01
2022-12-25T18:51:05.912Z,2.06
2022-12-25T18:53:36.478Z,2.12
2022-12-25T18:56:10.091Z,2.10
2022-12-25T18:58:40.488Z,2.10
2022-12-25T19:01:14.670Z,2.07
2022-12-25T19:03:45.800Z,2.15
2022-12-25T19:06:26.796Z,2.15
2022-12-25T19:08:57.972Z,2.13
2022-12-25T19:11:28.297Z,2.17
2022-12-25T19:13:58.453Z,2.15
2022-12-25T19:16:28.733Z,2.09
2022-12-25T19:18:58.961Z,2.18
2022-12-25T19:21:29.248Z,2.19
2022-12-25T19:23:59.363Z,2.17
2022-12-25T19:26:29.493Z,2.20
2022-12-25T19:28:59.659Z,2.22
2022-12-25T19:31:29.851Z,2.17
2022-12-25T19:34:00.152Z,2.20
2022-12-25T19:36:30.600Z,2.19
2022-12-25T19:39:01.219Z,2.21
2022-12-25T19:41:31.971Z,2.24
2022-12-25T19:44:02.201Z,2.22
2022-12-25T19:46:35.099Z,2.23
2022-12-25T19:49:05.370Z,2.24
2022-12-25T19:51:41.167Z,2.17
2022-12-25T19:54:16.668Z,2.28
2022-12-25T19:56:47.860Z,2.18
2022-12-25T19:59:18.157Z,2.25
2022-12-25T20:01:48.526Z,2.28
2022-12-25T20:04:18.976Z,2.31
2022-12-25T20:06:49.137Z,2.29
2022-12-25T20:09:21.487Z,2.33
2022-12-25T20:11:52.092Z,2.33
2022-12-25T20:14:22.344Z,2.33
2022-12-25T20:16:52.460Z,2.29
2022-12-25T20:19:22.589Z,2.35
2022-12-25T20:21:54.340Z,2.35
2022-12-25T20:24:25.545Z,2.37
2022-12-25T20:26:59.252Z,2.33
2022-12-25T20:29:29.783Z,2.35
2022-12-25T20:31:59.995Z,2.14
2022-12-25T20:34:30.248Z,2.38
2022-12-25T20:37:00.396Z,2.39
2022-12-25T20:39:30.524Z,2.41
2022-12-25T20:42:00.614Z,2.42
2022-12-25T20:44:30.758Z,2.42
2022-12-25T20:47:01.320Z,2.43
2022-12-25T20:49:32.872Z,2.43
2022-12-25T20:52:05.684Z,2.45
2022-12-25T20:54:36.240Z,2.41
2022-12-25T20:57:06.499Z,2.42
2022-12-25T20:59:37.891Z,2.46
2022-12-25T21:02:10.455Z,2.37
2022-12-25T21:05:00.522Z,2.43
2022-12-25T21:07:30.961Z,2.43
2022-12-25T21:10:01.143Z,2.43
2022-12-25T21:12:31.241Z,2.40
2022-12-25T21:15:02.175Z,2.35
2022-12-25T21:17:32.338Z,2.29
2022-12-25T21:20:02.518Z,2.27
2022-12-25T21:22:33.376Z,2.28
2022-12-25T21:25:03.928Z,2.24
2022-12-25T21:27:33.988Z,2.27
2022-12-25T21:30:14.239Z,2.29
2022-12-25T21:33:04.503Z,2.31
2022-12-25T21:35:37.619Z,2.30
2022-12-25T21:38:07.906Z,2.33
2022-12-25T21:40:38.593Z,2.34
2022-12-25T21:43:12.104Z,2.32
2022-12-25T21:45:42.324Z,2.39
2022-12-25T21:48:13.482Z,2.38
2022-12-25T21:51:18.772Z,2.36
2022-12-25T21:53:49.359Z,2.40
2022-12-25T21:56:19.570Z,2.44
2022-12-25T21:58:49.710Z,2.43
2022-12-25T22:01:19.893Z,2.46
2022-12-25T22:03:50.185Z,2.44
2022-12-25T22:06:38.808Z,2.42
2022-12-25T22:09:09.372Z,2.44
2022-12-25T22:11:58.366Z,2.43
2022-12-25T22:14:51.404Z,2.40
2022-12-25T22:17:57.236Z,2.42
2022-12-25T22:20:38.711Z,2.37
2022-12-25T22:23:08.771Z,2.37
2022-12-25T22:25:38.941Z,2.37
2022-12-25T22:28:09.436Z,2.39
2022-12-25T22:30:44.515Z,2.38
2022-12-25T22:33:14.829Z,2.38
2022-12-25T22:35:44.971Z,2.42
2022-12-25T22:38:15.118Z,2.39
2022-12-25T22:40:45.287Z,2.37
2022-12-25T22:43:15.411Z,2.37
2022-12-25T22:45:45.581Z,2.34
2022-12-25T22:48:15.736Z,2.38
2022-12-25T22:50:45.881Z,2.37
2022-12-25T22:53:16.090Z,2.37
2022-12-25T22:55:49.597Z,2.36
2022-12-25T22:58:19.735Z,2.34
2022-12-25T23:00:49.870Z,2.32
2022-12-25T23:03:20.168Z,2.24
2022-12-25T23:05:54.961Z,2.31
2022-12-25T23:08:25.389Z,2.32
2022-12-25T23:10:55.519Z,2.33
2022-12-25T23:13:44.270Z,2.34
2022-12-25T23:16:15.720Z,2.33
2022-12-25T23:19:04.404Z,2.30
2022-12-25T23:21:53.545Z,2.32
2022-12-25T23:24:42.165Z,2.30
2022-12-25T23:27:12.525Z,2.31
2022-12-25T23:29:42.643Z,2.24
2022-12-25T23:32:30.487Z,2.30
2022-12-25T23:35:00.623Z,2.26
2022-12-25T23:37:31.115Z,2.32
2022-12-25T23:40:01.487Z,2.31
2022-12-25T23:42:31.720Z,2.32
2022-12-25T23:45:01.885Z,2.28
2022-12-25T23:47:32.088Z,2.33
2022-12-25T23:50:02.311Z,2.32
2022-12-25T23:52:32.467Z,2.26
2022-12-25T23:55:02.543Z,2.35
2022-12-25T23:57:32.731Z,2.32
